Aérodrome :
LOGIN :

S'inscrire | Disclaimer

   EN    FR    IT 

 










Légende :    VFR   VFR Marginal   IFR   IFR Intensif   IFR Très Intensif
Visi : 
Plafond : 
>= 8 km
>= 3000ft
5 à 8 km
1000 à 3000 ft
1500m à 5 km
500 à 1000 ft
800 à 1500m
200 à 500 ft
< 800m
< 200 ft
Symboles :   Orages  Brouillard  Fortes neiges  Fortes précipitations  Vent > 20 kt
SIGMETs :   Divers  Orages  Givrage  Turbulence  Onde Orograph.  Cendres Volcan.







- Altitude de l'aérodrome : 529 ft
- Code IATA : CHR
- Voir les cartes d'approche


LFLX - Chateauroux

DERNIER METAR :
  • 191030Z AUTO 21015KT CAVOK 20/14 Q1010 NOSIG

METARs EXPIRÉS :
  • 191000Z AUTO 19011KT 9999 FEW018 BKN070 OVC084 19/14 Q1010 NOSIG
  • 190930Z AUTO 20009KT 9999 FEW014 SCT043 BKN060 18/14 Q1010 NOSIG
  • 190900Z AUTO 19007KT 170V230 9999 SCT042 BKN064 BKN074 17/14 Q1011 NOSIG
  • 190830Z AUTO 20005KT 9999 FEW044 BKN072 OVC082 16/14 Q1011 NOSIG
  • 190800Z AUTO 20003KT 9999 FEW022 OVC041 16/14 Q1011 TEMPO BKN006

TAF TAF LFLX
Valide du 19 à 06h jusqu'au 20 à 12h UTC


190500Z 1906/2012 12006KT 9999 BKN020
PROB30
TEMPO 1906/1909 BKN006
BECMG 1909/1911 20010KT SCT030
PROB30
TEMPO 1914/1917 -SHRA BKN030 SCT040TCU
BECMG 1923/2001 -RA BKN040
TEMPO 2003/2007 2500 -DZRA BKN008
BECMG 2007/2009 20005KT NSW SCT030
Pas de NOTAMs connus pour ce terrain.
1 SIGMET publié pour la FIR Bordeaux (LFBB) :
 
Turbulence forte
LFBB SIGMET 4 VALID 191000/191400 LFPW
LFBB BORDEAUX FIR/UIR SEV TURB FCST WI N4300 W00100 - N4300 W00145 - N4530 W00145 - N4530 W00115 FL220/330 MOV E 10KT NC=



MET'MAP, la Météo Aéronautique d'un coup d'oeil ! - Copyright ORBIFLY Décembre 2007 - Disclaimer

ORBIFLY MET'MAP TEAM :

Programmation & Développement : Alexandra Zaïnal
Conception & Développement : Baudouin d'Aumeries
Co-Programmation & Développement : Marc-Olivier Méhu
Soutien technique & logistique : Manuel Goepfert

Contact : metmap@orbifly.com




SOURCES & CREDITS :

   NOAA